sensor_id;sensor_type;location;lat;lon;timestamp;pressure;altitude;pressure_sealevel;temperature;humidity
41686;BME280;27370;42.764;23.432;2023-05-31T00:00:24;95666.69;;;14.69;100.00
41686;BME280;27370;42.764;23.432;2023-05-31T00:02:50;95657.59;;;14.76;100.00
41686;BME280;27370;42.764;23.432;2023-05-31T00:05:16;95654.75;;;14.80;100.00
41686;BME280;27370;42.764;23.432;2023-05-31T00:07:42;95658.63;;;14.95;100.00
41686;BME280;27370;42.764;23.432;2023-05-31T00:10:07;95648.03;;;14.97;100.00
41686;BME280;27370;42.764;23.432;2023-05-31T00:12:33;95650.00;;;15.09;100.00
41686;BME280;27370;42.764;23.432;2023-05-31T00:14:58;95640.84;;;15.16;100.00
41686;BME280;27370;42.764;23.432;2023-05-31T00:17:24;95650.69;;;15.26;100.00
41686;BME280;27370;42.764;23.432;2023-05-31T00:19:49;95634.97;;;15.17;100.00
41686;BME280;27370;42.764;23.432;2023-05-31T00:22:15;95644.69;;;15.18;100.00
41686;BME280;27370;42.764;23.432;2023-05-31T00:24:43;95648.41;;;15.24;100.00
41686;BME280;27370;42.764;23.432;2023-05-31T00:27:08;95650.81;;;15.22;100.00
41686;BME280;27370;42.764;23.432;2023-05-31T00:29:34;95646.84;;;15.11;100.00
41686;BME280;27370;42.764;23.432;2023-05-31T00:31:59;95645.22;;;15.13;100.00
41686;BME280;27370;42.764;23.432;2023-05-31T00:34:26;95640.44;;;15.17;100.00
41686;BME280;27370;42.764;23.432;2023-05-31T00:36:52;95652.34;;;15.49;100.00
41686;BME280;27370;42.764;23.432;2023-05-31T00:39:18;95647.63;;;15.49;100.00
41686;BME280;27370;42.764;23.432;2023-05-31T00:41:43;95646.34;;;15.41;100.00
41686;BME280;27370;42.764;23.432;2023-05-31T00:44:10;95654.41;;;15.32;100.00
41686;BME280;27370;42.764;23.432;2023-05-31T00:46:38;95642.84;;;15.28;100.00
41686;BME280;27370;42.764;23.432;2023-05-31T00:49:04;95654.84;;;15.18;100.00
41686;BME280;27370;42.764;23.432;2023-05-31T00:51:31;95648.19;;;15.31;100.00
41686;BME280;27370;42.764;23.432;2023-05-31T00:53:58;95636.63;;;15.40;100.00
41686;BME280;27370;42.764;23.432;2023-05-31T00:56:25;95641.31;;;15.40;100.00
41686;BME280;27370;42.764;23.432;2023-05-31T00:58:51;95647.97;;;15.51;100.00
41686;BME280;27370;42.764;23.432;2023-05-31T01:01:20;95641.00;;;15.63;100.00
41686;BME280;27370;42.764;23.432;2023-05-31T01:03:46;95637.09;;;15.64;100.00
41686;BME280;27370;42.764;23.432;2023-05-31T01:06:12;95643.72;;;15.76;100.00
41686;BME280;27370;42.764;23.432;2023-05-31T01:08:39;95641.09;;;15.72;100.00
41686;BME280;27370;42.764;23.432;2023-05-31T01:11:36;95641.88;;;15.73;100.00
41686;BME280;27370;42.764;23.432;2023-05-31T01:14:16;95643.06;;;15.84;100.00
41686;BME280;27370;42.764;23.432;2023-05-31T01:16:52;95639.03;;;15.76;100.00
41686;BME280;27370;42.764;23.432;2023-05-31T01:19:45;95647.75;;;15.84;100.00
41686;BME280;27370;42.764;23.432;2023-05-31T01:22:45;95642.28;;;15.84;100.00
41686;BME280;27370;42.764;23.432;2023-05-31T01:25:46;95639.66;;;15.80;100.00
41686;BME280;27370;42.764;23.432;2023-05-31T01:28:17;95641.66;;;15.67;100.00
41686;BME280;27370;42.764;23.432;2023-05-31T01:30:45;95643.06;;;15.84;100.00
41686;BME280;27370;42.764;23.432;2023-05-31T01:33:12;95636.41;;;15.73;100.00
41686;BME280;27370;42.764;23.432;2023-05-31T01:35:38;95645.13;;;15.55;100.00
41686;BME280;27370;42.764;23.432;2023-05-31T01:38:04;95649.16;;;15.50;100.00
41686;BME280;27370;42.764;23.432;2023-05-31T01:40:33;95634.53;;;15.31;100.00
41686;BME280;27370;42.764;23.432;2023-05-31T01:42:59;95653.31;;;15.29;100.00
41686;BME280;27370;42.764;23.432;2023-05-31T01:45:26;95650.47;;;15.20;100.00
41686;BME280;27370;42.764;23.432;2023-05-31T01:47:55;95637.56;;;15.08;100.00
41686;BME280;27370;42.764;23.432;2023-05-31T01:50:21;95646.94;;;15.07;100.00
41686;BME280;27370;42.764;23.432;2023-05-31T01:52:48;95650.66;;;15.13;100.00
41686;BME280;27370;42.764;23.432;2023-05-31T01:55:13;95642.41;;;15.29;100.00
41686;BME280;27370;42.764;23.432;2023-05-31T01:57:42;95647.09;;;15.29;100.00
41686;BME280;27370;42.764;23.432;2023-05-31T02:00:09;95640.44;;;15.17;100.00
41686;BME280;27370;42.764;23.432;2023-05-31T02:02:44;95645.78;;;15.21;100.00
41686;BME280;27370;42.764;23.432;2023-05-31T02:05:11;95650.16;;;15.18;100.00
41686;BME280;27370;42.764;23.432;2023-05-31T02:07:37;95656.44;;;15.15;100.00
41686;BME280;27370;42.764;23.432;2023-05-31T02:10:03;95650.00;;;14.96;100.00
41686;BME280;27370;42.764;23.432;2023-05-31T02:12:33;95653.16;;;15.08;100.00
41686;BME280;27370;42.764;23.432;2023-05-31T02:14:59;95664.19;;;15.04;100.00
41686;BME280;27370;42.764;23.432;2023-05-31T02:17:25;95652.88;;;15.18;100.00
41686;BME280;27370;42.764;23.432;2023-05-31T02:19:51;95664.63;;;15.15;100.00
41686;BME280;27370;42.764;23.432;2023-05-31T02:22:18;95658.53;;;15.11;100.00
41686;BME280;27370;42.764;23.432;2023-05-31T02:24:44;95656.16;;;15.26;100.00
41686;BME280;27370;42.764;23.432;2023-05-31T02:27:09;95651.00;;;15.28;100.00
41686;BME280;27370;42.764;23.432;2023-05-31T02:29:35;95662.59;;;15.45;100.00
41686;BME280;27370;42.764;23.432;2023-05-31T02:32:01;95664.31;;;15.39;100.00
41686;BME280;27370;42.764;23.432;2023-05-31T02:34:26;95663.03;;;15.43;100.00
41686;BME280;27370;42.764;23.432;2023-05-31T02:36:53;95658.34;;;15.44;100.00
41686;BME280;27370;42.764;23.432;2023-05-31T02:39:18;95655.38;;;15.51;100.00
41686;BME280;27370;42.764;23.432;2023-05-31T02:41:44;95656.47;;;15.53;100.00
41686;BME280;27370;42.764;23.432;2023-05-31T02:44:09;95658.78;;;15.55;100.00
41686;BME280;27370;42.764;23.432;2023-05-31T02:46:35;95664.44;;;15.48;100.00
41686;BME280;27370;42.764;23.432;2023-05-31T02:49:01;95668.81;;;15.32;100.00
41686;BME280;27370;42.764;23.432;2023-05-31T02:51:28;95670.22;;;15.37;100.00
41686;BME280;27370;42.764;23.432;2023-05-31T02:54:13;95662.03;;;15.37;100.00
41686;BME280;27370;42.764;23.432;2023-05-31T02:56:39;95666.41;;;15.47;100.00
41686;BME280;27370;42.764;23.432;2023-05-31T02:59:19;95671.56;;;15.45;100.00
41686;BME280;27370;42.764;23.432;2023-05-31T03:01:55;95672.09;;;15.40;100.00
41686;BME280;27370;42.764;23.432;2023-05-31T03:04:27;95662.69;;;15.28;100.00
41686;BME280;27370;42.764;23.432;2023-05-31T03:06:55;95661.16;;;15.27;100.00
41686;BME280;27370;42.764;23.432;2023-05-31T03:09:21;95678.53;;;15.46;100.00
41686;BME280;27370;42.764;23.432;2023-05-31T03:11:47;95673.94;;;15.30;100.00
41686;BME280;27370;42.764;23.432;2023-05-31T03:14:12;95678.41;;;15.37;100.00
41686;BME280;27370;42.764;23.432;2023-05-31T03:16:51;95667.16;;;15.22;100.00
41686;BME280;27370;42.764;23.432;2023-05-31T03:19:16;95684.28;;;15.36;100.00
41686;BME280;27370;42.764;23.432;2023-05-31T03:21:45;95674.59;;;15.22;100.00
41686;BME280;27370;42.764;23.432;2023-05-31T03:24:11;95686.91;;;15.26;100.00
41686;BME280;27370;42.764;23.432;2023-05-31T03:26:36;95687.91;;;15.32;100.00
41686;BME280;27370;42.764;23.432;2023-05-31T03:29:02;95694.44;;;15.35;100.00
41686;BME280;27370;42.764;23.432;2023-05-31T03:31:28;95687.69;;;15.27;100.00
41686;BME280;27370;42.764;23.432;2023-05-31T03:33:56;95694.34;;;15.26;100.00
41686;BME280;27370;42.764;23.432;2023-05-31T03:36:22;95689.75;;;15.23;100.00
41686;BME280;27370;42.764;23.432;2023-05-31T03:38:47;95705.91;;;15.17;100.00
41686;BME280;27370;42.764;23.432;2023-05-31T03:41:15;95700.78;;;15.19;100.00
41686;BME280;27370;42.764;23.432;2023-05-31T03:43:40;95695.09;;;15.26;100.00
41686;BME280;27370;42.764;23.432;2023-05-31T03:46:05;95709.00;;;15.45;100.00
41686;BME280;27370;42.764;23.432;2023-05-31T03:48:31;95703.72;;;15.38;100.00
41686;BME280;27370;42.764;23.432;2023-05-31T03:50:57;95708.53;;;15.33;100.00
41686;BME280;27370;42.764;23.432;2023-05-31T03:53:22;95710.94;;;15.31;100.00
41686;BME280;27370;42.764;23.432;2023-05-31T03:55:49;95714.31;;;15.36;100.00
41686;BME280;27370;42.764;23.432;2023-05-31T03:58:16;95696.97;;;15.42;100.00
41686;BME280;27370;42.764;23.432;2023-05-31T04:00:41;95709.53;;;15.52;100.00
41686;BME280;27370;42.764;23.432;2023-05-31T04:03:07;95708.00;;;15.51;100.00
41686;BME280;27370;42.764;23.432;2023-05-31T04:05:35;95704.72;;;15.44;100.00
41686;BME280;27370;42.764;23.432;2023-05-31T04:08:00;95707.91;;;15.55;100.00
41686;BME280;27370;42.764;23.432;2023-05-31T04:10:29;95714.03;;;15.59;100.00
41686;BME280;27370;42.764;23.432;2023-05-31T04:12:54;95709.47;;;15.69;100.00
41686;BME280;27370;42.764;23.432;2023-05-31T04:15:20;95711.22;;;15.75;100.00
41686;BME280;27370;42.764;23.432;2023-05-31T04:17:46;95717.97;;;15.83;100.00
41686;BME280;27370;42.764;23.432;2023-05-31T04:20:12;95713.06;;;15.91;100.00
41686;BME280;27370;42.764;23.432;2023-05-31T04:22:39;95711.75;;;15.96;100.00
41686;BME280;27370;42.764;23.432;2023-05-31T04:25:05;95707.91;;;16.06;100.00
41686;BME280;27370;42.764;23.432;2023-05-31T04:27:37;95709.22;;;16.14;100.00
41686;BME280;27370;42.764;23.432;2023-05-31T04:30:05;95706.28;;;16.08;100.00
41686;BME280;27370;42.764;23.432;2023-05-31T04:32:31;95708.91;;;16.12;100.00
41686;BME280;27370;42.764;23.432;2023-05-31T04:35:02;95706.50;;;16.14;100.00
41686;BME280;27370;42.764;23.432;2023-05-31T04:37:34;95696.31;;;16.14;100.00
41686;BME280;27370;42.764;23.432;2023-05-31T04:40:02;95718.81;;;16.31;100.00
41686;BME280;27370;42.764;23.432;2023-05-31T04:42:30;95723.16;;;16.41;100.00
41686;BME280;27370;42.764;23.432;2023-05-31T04:44:57;95717.13;;;16.46;100.00
41686;BME280;27370;42.764;23.432;2023-05-31T04:47:29;95705.06;;;16.57;100.00
41686;BME280;27370;42.764;23.432;2023-05-31T04:49:55;95715.72;;;16.42;100.00
41686;BME280;27370;42.764;23.432;2023-05-31T04:52:24;95711.63;;;16.59;100.00
41686;BME280;27370;42.764;23.432;2023-05-31T04:54:58;95707.81;;;16.57;100.00
41686;BME280;27370;42.764;23.432;2023-05-31T04:57:25;95725.28;;;16.59;100.00
41686;BME280;27370;42.764;23.432;2023-05-31T04:59:54;95727.22;;;16.71;100.00
41686;BME280;27370;42.764;23.432;2023-05-31T05:02:22;95710.38;;;16.73;100.00
41686;BME280;27370;42.764;23.432;2023-05-31T05:04:49;95719.81;;;16.59;100.00
41686;BME280;27370;42.764;23.432;2023-05-31T05:07:16;95721.88;;;16.68;100.00
41686;BME280;27370;42.764;23.432;2023-05-31T05:09:42;95725.53;;;16.87;100.00
41686;BME280;27370;42.764;23.432;2023-05-31T05:12:09;95720.56;;;16.94;100.00
41686;BME280;27370;42.764;23.432;2023-05-31T05:14:38;95724.28;;;17.00;100.00
41686;BME280;27370;42.764;23.432;2023-05-31T05:17:04;95723.06;;;17.01;100.00
41686;BME280;27370;42.764;23.432;2023-05-31T05:19:29;95725.72;;;17.14;100.00
41686;BME280;27370;42.764;23.432;2023-05-31T05:21:55;95737.88;;;17.35;100.00
41686;BME280;27370;42.764;23.432;2023-05-31T05:24:21;95738.25;;;17.46;100.00
41686;BME280;27370;42.764;23.432;2023-05-31T05:26:47;95731.44;;;17.51;100.00
41686;BME280;27370;42.764;23.432;2023-05-31T05:29:13;95736.59;;;17.49;100.00
41686;BME280;27370;42.764;23.432;2023-05-31T05:31:38;95736.16;;;17.50;100.00
41686;BME280;27370;42.764;23.432;2023-05-31T05:34:05;95743.03;;;17.55;100.00
41686;BME280;27370;42.764;23.432;2023-05-31T05:36:31;95742.97;;;17.67;100.00
41686;BME280;27370;42.764;23.432;2023-05-31T05:38:56;95737.66;;;17.73;100.00
41686;BME280;27370;42.764;23.432;2023-05-31T05:41:29;95739.97;;;17.84;100.00
41686;BME280;27370;42.764;23.432;2023-05-31T05:43:55;95739.41;;;17.89;100.00
41686;BME280;27370;42.764;23.432;2023-05-31T05:46:20;95738.50;;;17.92;100.00
41686;BME280;27370;42.764;23.432;2023-05-31T05:48:46;95749.16;;;17.90;100.00
41686;BME280;27370;42.764;23.432;2023-05-31T05:51:13;95745.09;;;18.03;100.00
41686;BME280;27370;42.764;23.432;2023-05-31T05:53:39;95741.50;;;18.16;100.00
41686;BME280;27370;42.764;23.432;2023-05-31T05:56:05;95735.69;;;18.14;100.00
41686;BME280;27370;42.764;23.432;2023-05-31T05:58:40;95744.03;;;18.10;100.00
41686;BME280;27370;42.764;23.432;2023-05-31T06:01:21;95747.13;;;18.12;100.00
41686;BME280;27370;42.764;23.432;2023-05-31T06:03:52;95745.91;;;18.22;100.00
41686;BME280;27370;42.764;23.432;2023-05-31T06:06:20;95742.78;;;18.42;100.00
41686;BME280;27370;42.764;23.432;2023-05-31T06:08:46;95736.22;;;18.40;100.00
41686;BME280;27370;42.764;23.432;2023-05-31T06:11:12;95736.47;;;18.23;100.00
41686;BME280;27370;42.764;23.432;2023-05-31T06:13:45;95748.16;;;18.64;100.00
41686;BME280;27370;42.764;23.432;2023-05-31T06:16:13;95750.59;;;18.71;100.00
41686;BME280;27370;42.764;23.432;2023-05-31T06:18:39;95738.75;;;19.02;100.00
41686;BME280;27370;42.764;23.432;2023-05-31T06:21:05;95740.09;;;18.97;100.00
41686;BME280;27370;42.764;23.432;2023-05-31T06:23:31;95744.84;;;19.06;100.00
41686;BME280;27370;42.764;23.432;2023-05-31T06:25:57;95738.41;;;19.09;100.00
41686;BME280;27370;42.764;23.432;2023-05-31T06:28:22;95734.91;;;19.26;100.00
41686;BME280;27370;42.764;23.432;2023-05-31T06:30:51;95737.03;;;19.13;100.00
41686;BME280;27370;42.764;23.432;2023-05-31T06:33:17;95730.94;;;19.18;100.00
41686;BME280;27370;42.764;23.432;2023-05-31T06:35:42;95731.22;;;19.30;100.00
41686;BME280;27370;42.764;23.432;2023-05-31T06:38:10;95724.94;;;19.56;100.00
41686;BME280;27370;42.764;23.432;2023-05-31T06:40:41;95731.31;;;19.63;100.00
41686;BME280;27370;42.764;23.432;2023-05-31T06:43:07;95735.59;;;19.64;100.00
41686;BME280;27370;42.764;23.432;2023-05-31T06:46:02;95732.22;;;19.78;100.00
41686;BME280;27370;42.764;23.432;2023-05-31T06:48:48;95730.13;;;19.54;100.00
41686;BME280;27370;42.764;23.432;2023-05-31T06:51:43;95719.00;;;19.49;100.00
41686;BME280;27370;42.764;23.432;2023-05-31T06:54:27;95734.50;;;19.79;100.00
41686;BME280;27370;42.764;23.432;2023-05-31T06:56:53;95732.66;;;19.76;100.00
41686;BME280;27370;42.764;23.432;2023-05-31T06:59:19;95733.44;;;19.77;100.00
41686;BME280;27370;42.764;23.432;2023-05-31T07:01:45;95729.56;;;19.93;100.00
41686;BME280;27370;42.764;23.432;2023-05-31T07:04:12;95725.00;;;20.13;100.00
41686;BME280;27370;42.764;23.432;2023-05-31T07:06:38;95733.13;;;20.17;100.00
41686;BME280;27370;42.764;23.432;2023-05-31T07:09:04;95737.41;;;20.09;100.00
41686;BME280;27370;42.764;23.432;2023-05-31T07:11:33;95732.47;;;20.22;100.00
41686;BME280;27370;42.764;23.432;2023-05-31T07:14:00;95717.44;;;20.32;100.00
41686;BME280;27370;42.764;23.432;2023-05-31T07:16:27;95725.66;;;20.65;100.00
41686;BME280;27370;42.764;23.432;2023-05-31T07:18:55;95722.28;;;20.70;100.00
41686;BME280;27370;42.764;23.432;2023-05-31T07:21:22;95731.66;;;20.78;100.00
41686;BME280;27370;42.764;23.432;2023-05-31T07:23:48;95725.78;;;20.71;100.00
41686;BME280;27370;42.764;23.432;2023-05-31T07:26:14;95730.41;;;20.65;100.00
41686;BME280;27370;42.764;23.432;2023-05-31T07:28:43;95725.53;;;20.84;100.00
41686;BME280;27370;42.764;23.432;2023-05-31T07:31:09;95732.59;;;20.99;100.00
41686;BME280;27370;42.764;23.432;2023-05-31T07:33:34;95728.72;;;21.06;100.00
41686;BME280;27370;42.764;23.432;2023-05-31T07:36:00;95723.13;;;21.15;100.00
41686;BME280;27370;42.764;23.432;2023-05-31T07:38:26;95727.59;;;21.13;100.00
41686;BME280;27370;42.764;23.432;2023-05-31T07:40:52;95728.25;;;21.22;100.00
41686;BME280;27370;42.764;23.432;2023-05-31T07:43:17;95715.88;;;21.42;100.00
41686;BME280;27370;42.764;23.432;2023-05-31T07:45:46;95715.94;;;21.47;100.00
41686;BME280;27370;42.764;23.432;2023-05-31T07:48:12;95720.91;;;21.58;100.00
41686;BME280;27370;42.764;23.432;2023-05-31T07:50:37;95713.31;;;21.53;100.00
41686;BME280;27370;42.764;23.432;2023-05-31T07:53:03;95715.84;;;21.86;100.00
41686;BME280;27370;42.764;23.432;2023-05-31T07:55:28;95717.34;;;21.87;100.00
41686;BME280;27370;42.764;23.432;2023-05-31T07:57:53;95714.94;;;21.94;100.00
41686;BME280;27370;42.764;23.432;2023-05-31T08:00:19;95713.13;;;22.21;100.00
41686;BME280;27370;42.764;23.432;2023-05-31T08:02:45;95713.28;;;22.32;100.00
41686;BME280;27370;42.764;23.432;2023-05-31T08:05:13;95711.44;;;22.09;100.00
41686;BME280;27370;42.764;23.432;2023-05-31T08:07:38;95706.66;;;21.74;100.00
41686;BME280;27370;42.764;23.432;2023-05-31T08:10:04;95712.56;;;22.02;100.00
41686;BME280;27370;42.764;23.432;2023-05-31T08:12:30;95702.16;;;21.77;100.00
41686;BME280;27370;42.764;23.432;2023-05-31T08:14:56;95705.81;;;22.03;100.00
41686;BME280;27370;42.764;23.432;2023-05-31T08:17:21;95704.00;;;22.15;100.00
41686;BME280;27370;42.764;23.432;2023-05-31T08:19:47;95697.81;;;21.55;100.00
41686;BME280;27370;42.764;23.432;2023-05-31T08:22:12;95699.00;;;21.98;100.00
41686;BME280;27370;42.764;23.432;2023-05-31T08:24:38;95704.59;;;22.59;100.00
41686;BME280;27370;42.764;23.432;2023-05-31T08:27:04;95696.25;;;22.74;100.00
41686;BME280;27370;42.764;23.432;2023-05-31T08:29:30;95699.13;;;23.06;100.00
41686;BME280;27370;42.764;23.432;2023-05-31T08:31:56;95693.19;;;23.13;100.00
41686;BME280;27370;42.764;23.432;2023-05-31T08:34:21;95694.06;;;23.25;100.00
41686;BME280;27370;42.764;23.432;2023-05-31T08:36:47;95698.72;;;23.65;100.00
41686;BME280;27370;42.764;23.432;2023-05-31T08:39:13;95697.38;;;23.55;100.00
41686;BME280;27370;42.764;23.432;2023-05-31T08:41:53;95693.06;;;23.53;100.00
41686;BME280;27370;42.764;23.432;2023-05-31T08:44:23;95693.03;;;23.22;100.00
41686;BME280;27370;42.764;23.432;2023-05-31T08:46:49;95687.38;;;22.44;100.00
41686;BME280;27370;42.764;23.432;2023-05-31T08:49:15;95676.16;;;22.33;100.00
41686;BME280;27370;42.764;23.432;2023-05-31T08:51:44;95682.13;;;22.67;100.00
41686;BME280;27370;42.764;23.432;2023-05-31T08:54:12;95675.75;;;22.60;100.00
41686;BME280;27370;42.764;23.432;2023-05-31T08:56:38;95678.03;;;22.82;100.00
41686;BME280;27370;42.764;23.432;2023-05-31T08:59:08;95665.72;;;23.04;100.00
41686;BME280;27370;42.764;23.432;2023-05-31T09:01:35;95663.50;;;23.08;100.00
41686;BME280;27370;42.764;23.432;2023-05-31T09:04:04;95673.84;;;22.46;100.00
41686;BME280;27370;42.764;23.432;2023-05-31T09:06:30;95659.00;;;22.64;100.00
41686;BME280;27370;42.764;23.432;2023-05-31T09:08:55;95658.59;;;22.51;100.00
41686;BME280;27370;42.764;23.432;2023-05-31T09:11:22;95656.91;;;22.79;100.00
41686;BME280;27370;42.764;23.432;2023-05-31T09:13:48;95657.22;;;23.33;100.00
41686;BME280;27370;42.764;23.432;2023-05-31T09:16:14;95639.78;;;23.53;100.00
41686;BME280;27370;42.764;23.432;2023-05-31T09:18:39;95656.09;;;23.77;100.00
41686;BME280;27370;42.764;23.432;2023-05-31T09:21:10;95650.25;;;24.06;100.00
41686;BME280;27370;42.764;23.432;2023-05-31T09:23:36;95650.28;;;24.12;100.00
41686;BME280;27370;42.764;23.432;2023-05-31T09:26:05;95641.69;;;24.04;100.00
41686;BME280;27370;42.764;23.432;2023-05-31T09:28:31;95644.56;;;24.27;100.00
41686;BME280;27370;42.764;23.432;2023-05-31T09:31:01;95639.09;;;24.38;100.00
41686;BME280;27370;42.764;23.432;2023-05-31T09:33:39;95634.81;;;24.37;100.00
41686;BME280;27370;42.764;23.432;2023-05-31T09:36:05;95624.38;;;24.15;100.00
41686;BME280;27370;42.764;23.432;2023-05-31T09:38:32;95611.59;;;24.23;100.00
41686;BME280;27370;42.764;23.432;2023-05-31T09:41:31;95638.94;;;24.10;100.00
41686;BME280;27370;42.764;23.432;2023-05-31T09:43:57;95615.34;;;24.20;100.00
41686;BME280;27370;42.764;23.432;2023-05-31T09:46:25;95626.34;;;24.57;100.00
41686;BME280;27370;42.764;23.432;2023-05-31T09:49:05;95612.25;;;24.61;100.00
41686;BME280;27370;42.764;23.432;2023-05-31T09:51:35;95623.38;;;24.72;100.00
41686;BME280;27370;42.764;23.432;2023-05-31T09:54:09;95626.41;;;24.68;100.00
41686;BME280;27370;42.764;23.432;2023-05-31T09:56:37;95612.88;;;24.22;100.00
41686;BME280;27370;42.764;23.432;2023-05-31T09:59:03;95605.00;;;24.15;100.00
41686;BME280;27370;42.764;23.432;2023-05-31T10:01:30;95622.88;;;24.14;100.00
41686;BME280;27370;42.764;23.432;2023-05-31T10:03:58;95615.44;;;23.26;100.00
41686;BME280;27370;42.764;23.432;2023-05-31T10:06:29;95600.25;;;23.10;100.00
41686;BME280;27370;42.764;23.432;2023-05-31T10:08:55;95598.69;;;23.03;100.00
41686;BME280;27370;42.764;23.432;2023-05-31T10:11:25;95600.38;;;23.27;100.00
41686;BME280;27370;42.764;23.432;2023-05-31T10:13:56;95594.34;;;23.22;100.00
41686;BME280;27370;42.764;23.432;2023-05-31T10:16:26;95584.44;;;23.42;100.00
41686;BME280;27370;42.764;23.432;2023-05-31T10:18:53;95584.97;;;23.77;100.00
41686;BME280;27370;42.764;23.432;2023-05-31T10:21:24;95584.81;;;23.98;100.00
41686;BME280;27370;42.764;23.432;2023-05-31T10:24:07;95586.28;;;24.41;100.00
41686;BME280;27370;42.764;23.432;2023-05-31T10:29:27;95589.44;;;24.94;100.00
41686;BME280;27370;42.764;23.432;2023-05-31T10:31:55;95585.91;;;24.93;100.00
41686;BME280;27370;42.764;23.432;2023-05-31T10:34:26;95574.38;;;25.28;100.00
41686;BME280;27370;42.764;23.432;2023-05-31T10:36:53;95590.47;;;25.02;100.00
41686;BME280;27370;42.764;23.432;2023-05-31T10:42:12;95593.63;;;24.56;100.00
41686;BME280;27370;42.764;23.432;2023-05-31T10:44:48;95585.31;;;24.45;100.00
41686;BME280;27370;42.764;23.432;2023-05-31T10:47:21;95580.25;;;24.43;100.00
41686;BME280;27370;42.764;23.432;2023-05-31T10:49:52;95595.16;;;24.57;100.00
41686;BME280;27370;42.764;23.432;2023-05-31T10:52:19;95586.78;;;24.40;100.00
41686;BME280;27370;42.764;23.432;2023-05-31T10:54:45;95580.22;;;24.32;100.00
41686;BME280;27370;42.764;23.432;2023-05-31T10:57:12;95582.53;;;24.45;100.00
41686;BME280;27370;42.764;23.432;2023-05-31T10:59:45;95578.34;;;24.12;100.00
41686;BME280;27370;42.764;23.432;2023-05-31T11:02:11;95573.06;;;24.08;100.00
41686;BME280;27370;42.764;23.432;2023-05-31T11:04:37;95572.78;;;24.01;100.00
41686;BME280;27370;42.764;23.432;2023-05-31T11:07:11;95570.19;;;23.92;100.00
41686;BME280;27370;42.764;23.432;2023-05-31T11:09:40;95570.78;;;23.64;100.00
41686;BME280;27370;42.764;23.432;2023-05-31T11:12:06;95565.66;;;23.51;100.00
41686;BME280;27370;42.764;23.432;2023-05-31T11:14:32;95576.97;;;23.53;100.00
41686;BME280;27370;42.764;23.432;2023-05-31T11:19:30;95570.09;;;23.38;100.00
41686;BME280;27370;42.764;23.432;2023-05-31T11:22:04;95574.28;;;23.28;100.00
41686;BME280;27370;42.764;23.432;2023-05-31T11:24:32;95563.78;;;23.32;100.00
41686;BME280;27370;42.764;23.432;2023-05-31T11:27:02;95571.00;;;23.29;100.00
41686;BME280;27370;42.764;23.432;2023-05-31T11:32:19;95564.88;;;23.14;100.00
41686;BME280;27370;42.764;23.432;2023-05-31T11:34:49;95563.63;;;23.15;100.00
41686;BME280;27370;42.764;23.432;2023-05-31T11:37:16;95569.59;;;23.08;100.00
41686;BME280;27370;42.764;23.432;2023-05-31T11:39:45;95562.41;;;22.90;100.00
41686;BME280;27370;42.764;23.432;2023-05-31T11:42:11;95565.75;;;22.74;100.00
41686;BME280;27370;42.764;23.432;2023-05-31T11:44:44;95571.28;;;23.00;100.00
41686;BME280;27370;42.764;23.432;2023-05-31T11:47:17;95561.41;;;22.87;100.00
41686;BME280;27370;42.764;23.432;2023-05-31T11:49:43;95556.38;;;22.86;100.00
41686;BME280;27370;42.764;23.432;2023-05-31T11:52:08;95563.00;;;23.00;100.00
41686;BME280;27370;42.764;23.432;2023-05-31T11:54:34;95550.97;;;23.03;100.00
41686;BME280;27370;42.764;23.432;2023-05-31T11:57:03;95558.06;;;23.09;100.00
41686;BME280;27370;42.764;23.432;2023-05-31T11:59:37;95551.78;;;23.09;100.00
41686;BME280;27370;42.764;23.432;2023-05-31T12:02:04;95554.94;;;22.96;100.00
41686;BME280;27370;42.764;23.432;2023-05-31T12:04:35;95552.44;;;22.98;100.00
41686;BME280;27370;42.764;23.432;2023-05-31T12:07:03;95563.53;;;23.04;100.00
41686;BME280;27370;42.764;23.432;2023-05-31T12:09:29;95550.13;;;22.91;100.00
41686;BME280;27370;42.764;23.432;2023-05-31T12:11:55;95553.66;;;22.91;100.00
41686;BME280;27370;42.764;23.432;2023-05-31T12:14:24;95549.91;;;22.69;100.00
41686;BME280;27370;42.764;23.432;2023-05-31T12:16:51;95566.16;;;22.87;100.00
41686;BME280;27370;42.764;23.432;2023-05-31T12:19:17;95548.84;;;22.86;100.00
41686;BME280;27370;42.764;23.432;2023-05-31T12:21:43;95551.66;;;22.92;100.00
41686;BME280;27370;42.764;23.432;2023-05-31T12:24:16;95546.66;;;22.96;100.00
41686;BME280;27370;42.764;23.432;2023-05-31T12:26:43;95539.25;;;22.82;100.00
41686;BME280;27370;42.764;23.432;2023-05-31T12:29:12;95548.44;;;22.73;100.00
41686;BME280;27370;42.764;23.432;2023-05-31T12:31:39;95540.50;;;22.60;100.00
41686;BME280;27370;42.764;23.432;2023-05-31T12:36:41;95541.88;;;22.71;100.00
41686;BME280;27370;42.764;23.432;2023-05-31T12:39:21;95538.94;;;22.80;100.00
41686;BME280;27370;42.764;23.432;2023-05-31T12:41:48;95544.59;;;22.91;100.00
41686;BME280;27370;42.764;23.432;2023-05-31T12:44:19;95540.63;;;22.98;100.00
41686;BME280;27370;42.764;23.432;2023-05-31T12:46:46;95544.94;;;23.04;100.00
41686;BME280;27370;42.764;23.432;2023-05-31T12:49:26;95540.38;;;22.96;100.00
41686;BME280;27370;42.764;23.432;2023-05-31T12:51:59;95540.16;;;22.99;100.00
41686;BME280;27370;42.764;23.432;2023-05-31T12:54:27;95528.94;;;22.82;100.00
41686;BME280;27370;42.764;23.432;2023-05-31T12:56:55;95535.22;;;22.83;100.00
41686;BME280;27370;42.764;23.432;2023-05-31T12:59:21;95534.66;;;22.79;100.00